createdAt,value
2022-11-29T02:54:30.136Z,3.58
2022-11-29T02:57:02.530Z,3.78
2022-11-29T02:59:57.911Z,3.70
2022-11-29T03:02:53.501Z,3.65
2022-11-29T03:05:58.749Z,3.55
2022-11-29T03:08:35.405Z,3.40
2022-11-29T03:11:48.951Z,3.28
2022-11-29T03:14:32.148Z,3.20
2022-11-29T03:17:26.506Z,2.63
2022-11-29T03:20:12.734Z,2.85
2022-11-29T03:22:59.078Z,2.50
2022-11-29T03:25:41.083Z,2.70
2022-11-29T03:28:17.510Z,2.75
2022-11-29T03:30:54.067Z,2.70
2022-11-29T03:33:40.301Z,2.60
2022-11-29T03:36:22.028Z,2.42
2022-11-29T03:38:53.086Z,2.72
2022-11-29T03:41:26.877Z,2.50
2022-11-29T03:44:04.140Z,2.47
2022-11-29T03:46:48.487Z,2.22
2022-11-29T03:49:34.634Z,1.70
2022-11-29T03:52:26.794Z,2.20
2022-11-29T03:55:07.051Z,2.33
2022-11-29T03:57:45.785Z,2.75
2022-11-29T04:00:14.090Z,1.83
2022-11-29T04:03:11.894Z,1.88
2022-11-29T04:05:39.550Z,2.00
2022-11-29T04:08:56.040Z,2.67
2022-11-29T04:11:29.593Z,1.90
2022-11-29T04:14:12.646Z,1.65
2022-11-29T04:16:58.853Z,1.77
2022-11-29T04:20:03.957Z,1.90
2022-11-29T04:23:02.246Z,2.00
2022-11-29T04:25:54.855Z,2.03
2022-11-29T04:28:28.346Z,1.95
2022-11-29T04:31:18.690Z,1.80
2022-11-29T04:34:12.212Z,1.55
2022-11-29T04:36:42.714Z,2.05
2022-11-29T04:39:32.424Z,2.15
2022-11-29T04:42:25.927Z,1.70
2022-11-29T04:45:15.000Z,1.98
2022-11-29T04:47:57.900Z,1.85
2022-11-29T04:50:43.619Z,1.70
2022-11-29T04:53:54.648Z,1.92
2022-11-29T04:56:37.369Z,1.50
2022-11-29T04:59:20.101Z,1.85
2022-11-29T05:02:14.524Z,1.45
2022-11-29T05:04:45.516Z,1.50
2022-11-29T05:07:28.176Z,1.70
2022-11-29T05:12:35.650Z,1.50
2022-11-29T05:15:03.299Z,1.65
2022-11-29T05:17:38.630Z,1.60
2022-11-29T05:20:37.280Z,1.70
2022-11-29T05:23:19.286Z,1.70
2022-11-29T05:26:10.472Z,1.42
2022-11-29T05:28:58.012Z,2.00
2022-11-29T05:31:45.906Z,1.65
2022-11-29T05:34:35.099Z,1.55
2022-11-29T05:37:18.592Z,1.60
2022-11-29T05:39:58.274Z,1.30
2022-11-29T05:43:03.600Z,1.40
2022-11-29T05:45:57.593Z,1.98
2022-11-29T05:48:54.625Z,2.00
2022-11-29T05:51:31.270Z,1.50
2022-11-29T05:54:25.540Z,1.75
2022-11-29T05:57:03.666Z,1.77
2022-11-29T05:59:31.893Z,1.40
2022-11-29T06:02:33.444Z,1.52
2022-11-29T06:05:31.515Z,1.25
2022-11-29T06:08:04.305Z,1.48
2022-11-29T06:10:36.288Z,1.55
2022-11-29T06:13:16.906Z,1.48
2022-11-29T06:15:47.820Z,1.60
2022-11-29T06:18:23.780Z,1.52
2022-11-29T06:21:33.618Z,1.55
2022-11-29T06:24:25.568Z,1.67
2022-11-29T06:27:06.007Z,1.50
2022-11-29T06:29:37.400Z,1.60
2022-11-29T06:32:42.571Z,1.50
2022-11-29T06:35:22.336Z,1.40
2022-11-29T06:37:52.391Z,1.60
2022-11-29T06:40:20.262Z,1.50
2022-11-29T06:42:49.095Z,1.50
2022-11-29T06:45:17.224Z,1.50
2022-11-29T06:47:59.253Z,1.85
2022-11-29T06:50:29.896Z,1.92
2022-11-29T06:52:58.634Z,2.42
2022-11-29T06:55:55.283Z,2.42
2022-11-29T06:58:25.967Z,2.80
2022-11-29T07:01:04.959Z,2.35
2022-11-29T07:03:50.960Z,2.45
2022-11-29T07:06:24.373Z,3.05
2022-11-29T07:08:55.822Z,2.67
2022-11-29T07:11:23.903Z,2.95
2022-11-29T07:13:52.005Z,2.92
2022-11-29T07:16:57.613Z,2.70
2022-11-29T07:19:47.939Z,2.95
2022-11-29T07:22:51.078Z,2.47
2022-11-29T07:25:43.096Z,2.70
2022-11-29T07:28:29.413Z,2.30
2022-11-29T07:30:57.214Z,2.42
2022-11-29T07:33:46.123Z,2.20
2022-11-29T07:36:28.772Z,2.33
2022-11-29T07:39:24.366Z,2.38
2022-11-29T07:42:20.781Z,2.30
2022-11-29T07:45:33.462Z,2.03
2022-11-29T07:48:01.240Z,2.13
2022-11-29T07:50:29.806Z,2.03
2022-11-29T07:52:57.867Z,1.83
2022-11-29T07:55:26.762Z,2.10
2022-11-29T07:57:54.423Z,2.15
2022-11-29T08:00:22.437Z,2.10
2022-11-29T08:02:50.961Z,2.25
2022-11-29T08:05:19.404Z,1.98
2022-11-29T08:07:47.894Z,1.92
2022-11-29T08:10:16.767Z,1.98
2022-11-29T08:12:46.741Z,1.95
2022-11-29T08:15:15.032Z,1.90
2022-11-29T08:17:42.765Z,2.25
2022-11-29T08:20:11.561Z,2.30
2022-11-29T08:22:39.459Z,1.73
2022-11-29T08:25:07.986Z,1.98
2022-11-29T08:27:37.138Z,2.03
2022-11-29T08:30:07.108Z,2.13
2022-11-29T08:32:35.270Z,1.80
2022-11-29T08:35:03.031Z,1.80
2022-11-29T08:37:31.085Z,1.90
2022-11-29T08:39:59.666Z,1.90
2022-11-29T08:42:28.131Z,2.00
2022-11-29T08:44:55.940Z,2.30
2022-11-29T08:47:38.927Z,2.30
2022-11-29T08:50:15.515Z,2.10
2022-11-29T08:53:07.238Z,1.85
2022-11-29T08:55:42.701Z,1.50
2022-11-29T08:58:12.604Z,1.95
2022-11-29T09:00:41.087Z,2.08
2022-11-29T09:03:27.758Z,2.30
2022-11-29T09:05:55.597Z,1.92
2022-11-29T09:08:23.524Z,2.13
2022-11-29T09:10:51.279Z,2.30
2022-11-29T09:13:19.060Z,2.38
2022-11-29T09:15:46.731Z,1.90
2022-11-29T09:18:14.452Z,1.77
2022-11-29T09:20:44.199Z,2.05
2022-11-29T09:23:13.279Z,1.90
2022-11-29T09:25:41.093Z,1.65
2022-11-29T09:28:08.791Z,2.20
2022-11-29T09:30:38.271Z,1.85
2022-11-29T09:33:05.954Z,2.00
2022-11-29T09:35:34.801Z,1.70
2022-11-29T09:38:02.522Z,1.98
2022-11-29T09:41:01.972Z,1.90
2022-11-29T09:43:44.571Z,1.92
2022-11-29T09:49:10.349Z,1.83
2022-11-29T09:51:50.613Z,1.80
2022-11-29T09:54:27.307Z,2.00
2022-11-29T09:56:56.989Z,1.50
2022-11-29T09:59:32.768Z,2.13
2022-11-29T10:02:21.140Z,2.00
2022-11-29T10:05:19.067Z,2.55
2022-11-29T10:07:51.407Z,2.00
2022-11-29T10:13:31.919Z,2.10
2022-11-29T10:16:11.135Z,2.63
2022-11-29T10:18:47.011Z,2.35
2022-11-29T10:21:19.017Z,1.92
2022-11-29T10:23:55.522Z,2.55
2022-11-29T10:26:25.902Z,2.20
2022-11-29T10:28:57.842Z,2.03
2022-11-29T10:31:40.269Z,2.38
2022-11-29T10:34:16.388Z,2.03
2022-11-29T10:37:01.549Z,2.22
2022-11-29T10:40:04.422Z,2.10
2022-11-29T10:45:39.125Z,2.40
2022-11-29T10:48:10.329Z,2.30
2022-11-29T10:50:42.891Z,1.95
2022-11-29T10:53:19.533Z,2.20
2022-11-29T10:55:53.743Z,2.13
2022-11-29T10:58:28.610Z,2.10
2022-11-29T11:01:01.889Z,2.17
2022-11-29T11:03:40.246Z,2.22
2022-11-29T11:06:15.211Z,2.10
2022-11-29T11:08:48.903Z,1.70
2022-11-29T11:11:32.812Z,2.05
2022-11-29T11:14:21.207Z,1.95
2022-11-29T11:16:49.145Z,2.00
2022-11-29T11:19:29.656Z,2.13
2022-11-29T11:21:59.150Z,1.83
2022-11-29T11:24:57.685Z,1.70
2022-11-29T11:27:34.305Z,1.63
2022-11-29T11:30:06.123Z,2.00
2022-11-29T11:32:33.921Z,2.08
2022-11-29T11:35:02.574Z,2.20
2022-11-29T11:37:38.018Z,1.80
2022-11-29T11:40:29.187Z,2.00
2022-11-29T11:42:58.307Z,1.85
2022-11-29T11:45:36.796Z,2.15
2022-11-29T11:48:12.874Z,1.77
2022-11-29T11:50:40.687Z,1.90
2022-11-29T11:53:20.038Z,1.63
2022-11-29T11:56:08.831Z,1.63
2022-11-29T11:58:47.820Z,2.17
2022-11-29T12:01:24.895Z,2.08
2022-11-29T12:04:02.143Z,1.75
2022-11-29T12:06:47.524Z,1.83
2022-11-29T12:09:19.609Z,1.60
2022-11-29T12:14:23.867Z,1.60
2022-11-29T12:17:05.789Z,1.73
2022-11-29T12:19:41.601Z,1.65
2022-11-29T12:22:16.238Z,1.77
2022-11-29T12:24:54.248Z,1.50
2022-11-29T12:27:22.072Z,1.60
2022-11-29T12:29:51.295Z,1.65
2022-11-29T12:32:37.897Z,1.67
2022-11-29T12:35:29.429Z,1.50
2022-11-29T12:37:57.109Z,1.88
2022-11-29T12:40:43.662Z,1.75
2022-11-29T12:43:14.303Z,1.70
2022-11-29T12:45:49.389Z,1.92
2022-11-29T12:48:35.356Z,1.75
2022-11-29T12:51:51.127Z,2.10
2022-11-29T12:54:18.869Z,1.83
2022-11-29T12:57:01.879Z,2.00
2022-11-29T12:59:38.553Z,2.00
2022-11-29T13:02:36.841Z,2.10
2022-11-29T13:05:13.002Z,1.90
2022-11-29T13:07:57.337Z,1.85
2022-11-29T13:10:28.037Z,1.80
2022-11-29T13:13:00.916Z,1.90
2022-11-29T13:15:40.665Z,1.92
2022-11-29T13:18:23.441Z,1.88
2022-11-29T13:20:51.179Z,2.30
2022-11-29T13:23:45.895Z,2.40
2022-11-29T13:26:27.101Z,2.40
2022-11-29T13:28:54.918Z,2.10
2022-11-29T13:31:24.979Z,2.50
2022-11-29T13:34:35.442Z,2.00
2022-11-29T13:37:21.344Z,2.30
2022-11-29T13:40:16.482Z,2.22
2022-11-29T13:42:53.896Z,2.60
2022-11-29T13:45:31.024Z,2.45
2022-11-29T13:48:00.228Z,2.22
2022-11-29T13:50:38.997Z,2.50
2022-11-29T13:53:15.028Z,2.40
2022-11-29T13:56:00.443Z,2.53
2022-11-29T13:58:28.148Z,2.53
2022-11-29T14:01:07.266Z,2.20
2022-11-29T14:03:42.813Z,2.35
2022-11-29T14:06:21.913Z,2.38
2022-11-29T14:09:17.657Z,3.05
2022-11-29T14:11:53.404Z,2.70
2022-11-29T14:14:25.075Z,2.78
2022-11-29T14:16:56.853Z,2.42
2022-11-29T14:19:34.427Z,2.72
2022-11-29T14:22:02.364Z,2.70
2022-11-29T14:24:33.467Z,2.60
2022-11-29T14:27:07.676Z,2.65
2022-11-29T14:29:47.689Z,2.28
2022-11-29T14:32:41.502Z,2.58
2022-11-29T14:35:12.299Z,2.53
2022-11-29T14:37:53.704Z,2.75
2022-11-29T14:40:26.297Z,2.85
2022-11-29T14:42:54.258Z,2.50
2022-11-29T14:45:28.916Z,2.22
2022-11-29T14:47:58.422Z,2.65
2022-11-29T14:50:34.058Z,2.40
2022-11-29T14:53:02.616Z,2.90
2022-11-29T14:55:38.422Z,2.80
2022-11-29T14:58:17.729Z,2.80
2022-11-29T15:00:48.612Z,3.13
2022-11-29T15:03:16.330Z,2.90
2022-11-29T15:05:46.728Z,2.67
2022-11-29T15:08:44.473Z,3.15
2022-11-29T15:11:14.349Z,2.60
2022-11-29T15:13:59.577Z,2.88
2022-11-29T15:16:58.282Z,3.03
2022-11-29T15:19:49.560Z,3.60
2022-11-29T15:22:22.944Z,2.90
2022-11-29T15:24:55.653Z,3.25
2022-11-29T15:27:24.407Z,2.92
2022-11-29T15:29:53.189Z,3.45
2022-11-29T15:32:26.128Z,3.10
2022-11-29T15:34:55.955Z,3.38
2022-11-29T15:37:36.697Z,3.10
2022-11-29T15:40:06.026Z,2.60
2022-11-29T15:42:48.697Z,3.25
2022-11-29T15:45:33.158Z,3.00
2022-11-29T15:48:33.261Z,3.13
2022-11-29T15:51:10.139Z,3.13
2022-11-29T15:53:47.694Z,3.30
2022-11-29T15:56:20.541Z,2.80
2022-11-29T15:58:48.654Z,3.22
2022-11-29T16:01:21.031Z,3.13
2022-11-29T16:06:42.651Z,2.78
2022-11-29T16:09:13.653Z,3.20
2022-11-29T16:11:41.500Z,3.33
2022-11-29T16:14:18.374Z,3.10
2022-11-29T16:16:48.024Z,2.63
2022-11-29T16:19:35.649Z,2.50
2022-11-29T16:22:12.568Z,3.35
2022-11-29T16:24:51.319Z,2.78
2022-11-29T16:27:19.748Z,2.80
2022-11-29T16:29:48.683Z,2.88
2022-11-29T16:32:32.069Z,2.88
2022-11-29T16:35:18.673Z,2.55
2022-11-29T16:37:46.884Z,3.10
2022-11-29T16:40:27.621Z,2.97
2022-11-29T16:43:04.637Z,3.10
2022-11-29T16:45:41.145Z,3.08
2022-11-29T16:48:27.099Z,2.60
2022-11-29T16:51:10.403Z,2.60
2022-11-29T16:53:40.702Z,2.67
2022-11-29T16:56:10.707Z,2.60
2022-11-29T16:59:16.699Z,3.15
2022-11-29T17:01:29.563Z,2.10
2022-11-29T17:03:59.723Z,2.83
2022-11-29T17:06:29.072Z,2.67
2022-11-29T17:08:58.588Z,2.70
2022-11-29T17:11:26.543Z,2.47
2022-11-29T17:13:54.569Z,2.55
2022-11-29T17:16:23.788Z,2.42
2022-11-29T17:18:53.031Z,2.67
2022-11-29T17:21:23.328Z,2.47
2022-11-29T17:23:51.550Z,2.70
2022-11-29T17:26:19.874Z,2.72
2022-11-29T17:28:48.927Z,2.40
2022-11-29T17:31:18.687Z,2.45
2022-11-29T17:33:46.894Z,2.13
2022-11-29T17:36:17.272Z,2.70
2022-11-29T17:38:45.833Z,2.17
2022-11-29T17:41:18.894Z,2.38
2022-11-29T17:43:46.637Z,2.25
2022-11-29T17:46:28.404Z,2.70
2022-11-29T17:48:57.286Z,2.25
2022-11-29T17:54:13.293Z,2.40
2022-11-29T17:56:40.941Z,3.25
2022-11-29T17:59:08.640Z,2.72
2022-11-29T18:01:36.977Z,2.75
2022-11-29T18:04:06.941Z,2.45
2022-11-29T18:06:36.837Z,2.83
2022-11-29T18:09:06.184Z,2.50
2022-11-29T18:11:46.965Z,2.72
2022-11-29T18:14:28.355Z,2.55
2022-11-29T18:16:56.592Z,2.80
2022-11-29T18:19:25.524Z,2.50
2022-11-29T18:21:53.380Z,2.72
2022-11-29T18:24:21.187Z,2.78
2022-11-29T18:26:49.080Z,2.75
2022-11-29T18:29:16.931Z,2.97
2022-11-29T18:31:45.604Z,3.00
2022-11-29T18:34:14.434Z,3.35
2022-11-29T18:36:47.428Z,3.63
2022-11-29T18:39:19.873Z,3.67
2022-11-29T18:41:49.283Z,3.40
2022-11-29T18:44:18.698Z,3.05
2022-11-29T18:46:46.453Z,3.30
2022-11-29T18:49:16.692Z,3.50
2022-11-29T18:51:45.626Z,3.00
2022-11-29T18:54:15.097Z,3.92
2022-11-29T18:56:43.704Z,3.72
2022-11-29T18:59:17.337Z,3.90
2022-11-29T19:01:47.788Z,3.80
2022-11-29T19:04:18.259Z,4.10
2022-11-29T19:06:46.327Z,4.18
2022-11-29T19:09:17.943Z,4.10
2022-11-29T19:11:45.783Z,4.50
2022-11-29T19:14:13.785Z,4.03
2022-11-29T19:16:44.120Z,3.75
2022-11-29T19:19:12.305Z,4.07
2022-11-29T19:21:40.760Z,4.28
2022-11-29T19:24:14.321Z,4.05
2022-11-29T19:26:44.796Z,4.00
2022-11-29T19:29:16.577Z,3.80
2022-11-29T19:31:45.777Z,4.05
2022-11-29T19:34:18.565Z,3.80
2022-11-29T19:36:46.547Z,3.55
2022-11-29T19:39:16.281Z,4.15
2022-11-29T19:41:46.305Z,4.47
2022-11-29T19:44:14.356Z,4.30
2022-11-29T19:46:45.814Z,4.28
2022-11-29T19:49:13.775Z,3.88
2022-11-29T19:51:41.741Z,3.90
2022-11-29T19:54:10.484Z,4.00
2022-11-29T19:56:39.096Z,3.92
2022-11-29T19:59:08.270Z,3.90
2022-11-29T20:01:40.801Z,4.25
2022-11-29T20:04:10.770Z,4.20
2022-11-29T20:06:38.903Z,4.18
2022-11-29T20:09:07.246Z,4.10
2022-11-29T20:11:35.225Z,3.97
2022-11-29T20:14:05.567Z,3.80
2022-11-29T20:16:34.771Z,3.80
2022-11-29T20:19:02.993Z,3.67
2022-11-29T20:21:32.651Z,3.70
2022-11-29T20:24:07.195Z,3.60
2022-11-29T20:26:37.061Z,4.03
2022-11-29T20:29:06.409Z,4.50
2022-11-29T20:31:35.946Z,3.70
2022-11-29T20:34:06.833Z,4.17
2022-11-29T20:37:06.957Z,4.00
2022-11-29T20:39:54.554Z,4.20
